x

Halibut Bank (46146) Wave Buoy

6:00 - Wed 23rd Jul 2014 All times are PDT. -7 hours from GMT.

  • Sig Wave height 0.7ft
  • Peak Period 2s
  • Wind
    13mph, 16mph gusts
  • Sea Temp 62°f
  • Luft Temp 58°f
  • Sea Pressure 1013.9mb
  • Halibut Bank
  • Halibut Bank

More Historic Weather Station data

Upgrade to MSW Pro to gain access to the past 30 days of data for over 8000 Wavebouys and Weather Stations around the globe.

Join Pro

Comparision Forecast

View Surf forecast
   
Mi 07/23 6:00 0.7ft 2s 13 16 mph 1013.9mb 62f 58f
5:00 0.7ft 2s 9 16 mph 1013.9mb 63f 59f
4:00 1ft 2s 13
mph
1014.1mb 62f 60f
3:00 0.7ft 2s 13 16 mph 1014.6mb 64f 60f
2:00 0.3ft 3s 11 13 mph 1014.8mb 65f 60f
1:00 0.3ft 4s 7 9 mph 1014.9mb 65f 60f
12:00 0.3ft 2s 4 7 mph 1014.9mb 65f 60f
11:00 0.3ft 2s 2
mph
1014.9mb 64f 59f
10:00 0.3ft 6s 4
mph
1015mb 64f 60f
9:00 0.3ft 2s 2 4 mph 1014.7mb 64f 60f
8:00 0.3ft 6s 4 7 mph 1014.5mb 64f 60f
7:00 0.3ft 2s  -  2 mph 1014.7mb 64f 60f
6:00 0.3ft 2s 4 7 mph 1014.7mb 64f 59f
5:00 0.3ft 4s 4
mph
1014.7mb 65f 59f
4:00 0.3ft 2s 7
mph
1015.3mb 65f 59f
3:00 0.3ft 2s 4
mph
1015.7mb 64f 59f
2:00 0.3ft 2s 2 4 mph 1015.6mb 63f 59f
1:00 0.3ft 3s 4
mph
1016.2mb 63f 60f
12:00 0.7ft 3s 4
mph
1016.5mb 62f 60f
Di 07/22 11:00 0.7ft 3s 4
mph
1016.5mb 64f 60f
10:00 1ft 3s 9
mph
1016.6mb 64f 61f
9:00 1.3ft 3s 11 13 mph 1016.4mb 64f 62f
8:00 1.3ft 4s 13 16 mph 1016.4mb 65f 62f
7:00 1.6ft 4s 16 20 mph 1016.6mb 65f 62f
6:00 1.3ft 3s 18 22 mph 1016.5mb 66f 62f
5:00 1.3ft 3s 18 22 mph 1016.9mb 66f 62f
4:00 0.7ft 2s 16 18 mph 1017mb 65f 63f
3:00 0.7ft 2s 11 13 mph 1017.4mb 65f 62f
2:00 0.7ft 2s 11
mph
1017.5mb 65f 62f
1:00 0.7ft 3s 11 13 mph 1017.3mb 65f 62f
12:00 1ft 3s 11 13 mph 1017.3mb 65f 61f
11:00 1ft 3s 11 13 mph 1017.3mb 64f 60f
10:00 1.3ft 3s 13 16 mph 1017.1mb 64f 60f
9:00 1.3ft 3s 13 18 mph 1017mb 64f 59f
8:00 1.3ft 3s 13 16 mph 1016.8mb 64f 59f
7:00 1.3ft 3s 16 18 mph 1016.2mb 64f 59f
6:00 1.3ft 3s 13 16 mph 1015.9mb 64f 59f
5:00 1.3ft 3s 13 16 mph 1015.7mb 64f 60f
4:00 1.3ft 3s 13 16 mph 1015.5mb 64f 60f
3:00 1ft 3s 13 18 mph 1015.3mb 64f 61f
2:00 1ft 3s 11 13 mph 1015.3mb 64f 62f
1:00 0.7ft 3s 13 18 mph 1015.1mb 65f 62f
12:00 0.7ft 3s 13 16 mph 1014.7mb 65f 62f
Mo 07/21 11:00 0.7ft 3s 11
mph
1014.9mb 65f 62f
10:00 0.7ft 3s 7 9 mph 1014.9mb 66f 62f
9:00 0.7ft 3s 9 11 mph 1014.8mb 66f 63f
8:00 0.7ft 3s 7 9 mph 1014.5mb 66f 63f
7:00 0.7ft 3s 11 13 mph 1014.6mb 66f 63f
6:00 0.7ft 7s 9 11 mph 1014.9mb 66f 63f
5:00 1ft 3s 11 13 mph 1015.1mb 66f 62f
4:00 1ft 3s 11
mph
1015.7mb 66f 62f
3:00 1ft 3s 9 11 mph 1016.1mb 65f 61f
2:00 1ft 3s 11 13 mph 1016.3mb 65f 60f
1:00 1ft 3s 13 16 mph 1016.5mb 65f 60f
12:00 1.3ft 3s 11 13 mph 1016.7mb 65f 59f
11:00 1.3ft 3s 11 13 mph 1017mb 65f 58f
10:00 1.6ft 3s 16 18 mph 1017.1mb 65f 58f
9:00 1.6ft 3s 18 20 mph 1017.1mb 65f 57f
8:00 1.6ft 3s 16 18 mph 1016.9mb 65f 58f
7:00 1.3ft 3s 16 18 mph 1016.2mb 65f 58f
6:00 1ft 3s 13 16 mph 1015.7mb 65f 58f
5:00 0.7ft 3s 11 13 mph 1015.3mb 65f 58f
4:00 0.7ft 2s 9 11 mph 1014.8mb 65f 59f
3:00 0.3ft 2s 9
mph
1014.5mb 65f 59f
2:00 0.3ft 3s 7 9 mph 1014.5mb 64f 59f
1:00 0.3ft 6s 7 9 mph 1014.2mb 64f 60f
12:00 0.3ft 3s 4 7 mph 1014.1mb 64f 60f
So 07/20 11:00 0.3ft 3s 4
mph
1013.9mb 64f 60f
10:00 0.3ft 5s 4
mph
1013.9mb 65f 60f
9:00 0.3ft 6s 4
mph
1013.8mb 65f 60f
8:00 0.3ft 2s 4 7 mph 1013.7mb 65f 61f
7:00 0.7ft 2s 7
mph
1013.6mb 65f 60f
6:00 0.3ft 6s 7 9 mph 1013.6mb 65f 60f
5:00 0.3ft 4s 9 11 mph 1013.7mb 65f 60f
4:00 0.3ft 5s 9 11 mph 1013.8mb 65f 60f
3:00 0.3ft 3s 4 7 mph 1014mb 65f 60f
2:00 0.7ft 4s 7 9 mph 1014.2mb 65f 59f
1:00 0.7ft 3s 11 13 mph 1014.3mb 65f 58f
12:00 0.7ft 2s 7
mph
1014.3mb 65f 59f
11:00 1ft 3s 7 9 mph 1014.2mb 65f 60f
10:00 1.3ft 3s 9 13 mph 1013.8mb 65f 60f
9:00 1.6ft 4s 9 13 mph 1013.7mb 65f 60f
8:00 1.6ft 4s 11 13 mph 1013.4mb 65f 60f
7:00 1.6ft 4s 16 18 mph 1013.1mb 65f 60f
6:00 2ft 4s 16 18 mph 1012.9mb 65f 60f
5:00 2ft 4s 16 18 mph 1012.4mb 65f 60f
4:00 2ft 4s 18
mph
1011.9mb 65f 60f
3:00 2.5ft 4s 18 20 mph 1011.8mb 65f 61f